Time;durP1;ratioP1;P1;durP2;ratioP2;P2;SDS_P1;SDS_P2;PMS_P1;PMS_P2;Temp;Humidity;BMP_temperature;BMP_pressure;BME280_temperature;BME280_humidity;BME280_pressure;Samples;Min_cycle;Max_cycle;Signal;HPM_P1;HPM_P2
2024/03/11 00:02:04;;;;;;;27.80;14.57;;;9.90;99.90;;;;;;5073139;28;20036;-54
2024/03/11 00:04:30;;;;;;;32.15;15.00;;;9.80;99.90;;;;;;5073093;28;20056;-53
2024/03/11 00:06:57;;;;;;;37.08;15.20;;;9.80;99.90;;;;;;5071756;28;20493;-54
2024/03/11 00:09:32;;;;;;;34.30;16.73;;;9.80;99.90;;;;;;5072731;28;20497;-53
2024/03/11 00:12:01;;;;;;;30.45;15.05;;;9.80;99.90;;;;;;5071548;28;20044;-52
2024/03/11 00:14:32;;;;;;;30.90;15.65;;;9.80;99.90;;;;;;5072846;28;20473;-52
2024/03/11 00:16:59;;;;;;;29.75;14.10;;;9.80;99.90;;;;;;5073588;28;20021;-54
2024/03/11 00:19:26;;;;;;;30.73;15.13;;;9.80;99.90;;;;;;5072783;28;20377;-50
2024/03/11 00:22:00;;;;;;;33.53;15.88;;;9.80;99.90;;;;;;5072685;28;20107;-51
2024/03/11 00:24:26;;;;;;;39.38;16.30;;;9.90;99.90;;;;;;5072740;28;20476;-46
2024/03/11 00:26:53;;;;;;;34.63;14.38;;;9.90;99.90;;;;;;5072636;28;20025;-53
2024/03/11 00:29:19;;;;;;;28.30;13.38;;;9.90;99.90;;;;;;5072473;28;20032;-53
2024/03/11 00:31:46;;;;;;;36.83;16.55;;;9.90;99.90;;;;;;5072502;28;20021;-40
2024/03/11 00:34:14;;;;;;;30.65;13.93;;;9.90;99.90;;;;;;5072057;28;20492;-53
2024/03/11 00:36:40;;;;;;;33.60;15.25;;;9.90;99.90;;;;;;5083801;28;20544;-55
2024/03/11 00:39:08;;;;;;;31.63;14.73;;;9.80;99.90;;;;;;5072442;28;20052;-51
2024/03/11 00:41:34;;;;;;;33.72;15.82;;;9.70;99.90;;;;;;5084809;28;20494;-53
2024/03/11 00:44:00;;;;;;;36.95;15.90;;;9.70;99.90;;;;;;5072503;28;20067;-50
2024/03/11 00:46:26;;;;;;;33.50;15.32;;;9.70;99.90;;;;;;5081525;28;20532;-51
2024/03/11 00:48:52;;;;;;;33.53;15.43;;;9.60;99.90;;;;;;5072625;28;20029;-53
2024/03/11 00:51:17;;;;;;;29.13;15.25;;;9.70;99.90;;;;;;5072323;28;20028;-53
2024/03/11 00:53:43;;;;;;;30.05;14.73;;;9.60;99.90;;;;;;5072376;28;20444;-53
2024/03/11 00:56:09;;;;;;;33.15;14.20;;;9.60;99.90;;;;;;5074854;28;20055;-52
2024/03/11 00:58:35;;;;;;;31.77;14.57;;;9.60;99.90;;;;;;5086678;28;20028;-53
2024/03/11 01:01:02;;;;;;;31.35;16.42;;;9.60;99.90;;;;;;5084399;28;20524;-52
2024/03/11 01:03:29;;;;;;;35.78;15.23;;;9.60;99.90;;;;;;5092365;28;20499;-53
2024/03/11 01:05:56;;;;;;;30.85;15.27;;;9.50;99.90;;;;;;5072097;28;20035;-53
2024/03/11 01:08:23;;;;;;;32.92;15.88;;;9.50;99.90;;;;;;5071885;28;20052;-50
2024/03/11 01:10:49;;;;;;;27.15;14.63;;;9.50;99.90;;;;;;5072121;28;20025;-53
2024/03/11 01:13:15;;;;;;;33.65;15.93;;;9.40;99.90;;;;;;5072048;28;20462;-54
2024/03/11 01:15:40;;;;;;;33.10;16.05;;;9.40;99.90;;;;;;5056218;28;20023;-53
2024/03/11 01:18:07;;;;;;;33.88;16.23;;;9.40;99.90;;;;;;5062662;28;20032;-49
2024/03/11 01:20:34;;;;;;;32.50;15.85;;;9.50;99.90;;;;;;5072258;28;20025;-51
2024/03/11 01:23:01;;;;;;;37.00;16.17;;;9.50;99.90;;;;;;5070251;28;20123;-53
2024/03/11 01:25:26;;;;;;;29.63;14.82;;;9.50;99.90;;;;;;5070724;28;20404;-50
2024/03/11 01:27:53;;;;;;;33.10;15.55;;;9.50;99.90;;;;;;5064468;28;20025;-53
2024/03/11 01:30:20;;;;;;;32.53;15.73;;;9.50;99.90;;;;;;5052158;28;20048;-53
2024/03/11 01:32:46;;;;;;;29.98;15.40;;;9.60;99.90;;;;;;5051942;28;20025;-49
2024/03/11 01:35:13;;;;;;;32.30;15.63;;;9.60;99.90;;;;;;5063448;28;20126;-52
2024/03/11 01:37:42;;;;;;;34.15;16.02;;;9.60;99.90;;;;;;5076553;28;20036;-52
2024/03/11 01:40:12;;;;;;;31.92;15.70;;;9.60;99.90;;;;;;5071291;28;20543;-42
2024/03/11 01:42:42;;;;;;;30.42;14.93;;;9.50;99.90;;;;;;5070520;28;20427;-42
2024/03/11 01:45:12;;;;;;;34.28;16.15;;;9.50;99.90;;;;;;5071682;28;20170;-42
2024/03/11 01:47:39;;;;;;;35.97;16.48;;;9.40;99.90;;;;;;5071881;28;20185;-39
2024/03/11 01:50:07;;;;;;;35.90;16.05;;;9.40;99.90;;;;;;5071239;28;20032;-40
2024/03/11 01:52:56;;;;;;;;;;;9.40;99.90;;;;;;5072247;28;20481;-45
2024/03/11 01:55:24;;;;;;;31.52;16.05;;;9.30;99.90;;;;;;5071914;28;19908;-42
2024/03/11 01:57:54;;;;;;;35.30;16.10;;;9.30;99.90;;;;;;5070425;28;20499;-41
2024/03/11 02:00:22;;;;;;;36.13;15.82;;;9.20;99.90;;;;;;5070771;28;20021;-41
2024/03/11 02:02:48;;;;;;;33.30;15.77;;;9.20;99.90;;;;;;5071401;28;20496;-60
2024/03/11 02:05:14;;;;;;;33.90;15.85;;;9.20;99.90;;;;;;5066475;28;20501;-40
2024/03/11 02:07:46;;;;;;;40.58;16.23;;;9.20;99.90;;;;;;5051521;28;20047;-41
2024/03/11 02:10:14;;;;;;;37.00;16.55;;;9.20;99.90;;;;;;5056363;28;20032;-41
2024/03/11 02:12:41;;;;;;;34.00;15.25;;;9.20;99.90;;;;;;5071753;28;20035;-39
2024/03/11 02:15:11;;;;;;;35.83;15.23;;;9.20;99.90;;;;;;5071548;28;20435;-41
2024/03/11 02:17:42;;;;;;;33.45;15.65;;;9.10;99.90;;;;;;5072757;28;20075;-39
2024/03/11 02:20:15;;;;;;;31.85;15.88;;;9.10;99.90;;;;;;5073611;28;20028;-39
2024/03/11 02:22:46;;;;;;;34.58;16.20;;;9.10;99.90;;;;;;5075277;28;20488;-40
2024/03/11 02:25:17;;;;;;;33.78;16.80;;;9.00;99.90;;;;;;5074791;28;20033;-39
2024/03/11 02:27:45;;;;;;;33.42;15.40;;;9.10;99.90;;;;;;5075074;28;20512;-42
2024/03/11 02:30:11;;;;;;;33.30;15.75;;;9.00;99.90;;;;;;5073448;28;20401;-40
2024/03/11 02:32:38;;;;;;;31.40;15.32;;;9.00;99.90;;;;;;5073531;28;20032;-41
2024/03/11 02:35:05;;;;;;;33.45;16.23;;;9.00;99.90;;;;;;5074825;28;20119;-39
2024/03/11 02:37:31;;;;;;;35.70;15.52;;;9.00;99.90;;;;;;5074939;28;20025;-39
2024/03/11 02:39:57;;;;;;;33.35;15.05;;;9.00;99.90;;;;;;5074828;28;20499;-39
2024/03/11 02:42:25;;;;;;;28.73;14.48;;;9.00;99.90;;;;;;5074567;28;20024;-44
2024/03/11 02:44:52;;;;;;;35.78;16.40;;;9.00;99.90;;;;;;5074773;28;20052;-41
2024/03/11 02:47:17;;;;;;;32.00;15.52;;;9.10;99.90;;;;;;5074582;28;20032;-42
2024/03/11 02:49:47;;;;;;;33.28;14.95;;;9.10;99.90;;;;;;5074552;28;20032;-40
2024/03/11 02:52:12;;;;;;;35.72;15.48;;;9.00;99.90;;;;;;5073270;28;20021;-54
2024/03/11 02:54:38;;;;;;;34.78;15.98;;;8.90;99.90;;;;;;5074628;28;20363;-54
2024/03/11 02:57:05;;;;;;;35.28;15.85;;;8.90;99.90;;;;;;5074692;28;20032;-57
2024/03/11 02:59:32;;;;;;;34.53;15.68;;;8.80;99.90;;;;;;5073084;28;20087;-49
2024/03/11 03:01:57;;;;;;;32.88;14.73;;;8.80;99.90;;;;;;5074610;28;20020;-53
2024/03/11 03:04:23;;;;;;;33.35;15.00;;;8.70;99.90;;;;;;5074274;28;20021;-52
2024/03/11 03:06:49;;;;;;;34.60;15.35;;;8.80;99.90;;;;;;5074304;28;20082;-53
2024/03/11 03:09:15;;;;;;;30.23;16.23;;;8.80;99.90;;;;;;5074063;28;20409;-40
2024/03/11 03:11:41;;;;;;;29.80;14.73;;;8.80;99.90;;;;;;5066397;28;20551;-42
2024/03/11 03:14:07;;;;;;;36.92;15.13;;;8.80;99.90;;;;;;5061794;28;20439;-42
2024/03/11 03:16:33;;;;;;;28.85;15.52;;;8.80;99.90;;;;;;5073968;28;20097;-39
2024/03/11 03:18:59;;;;;;;29.08;14.18;;;8.80;99.90;;;;;;5074001;28;20036;-40
2024/03/11 03:21:25;;;;;;;35.45;15.18;;;8.80;99.90;;;;;;5073745;28;20028;-42
2024/03/11 03:23:52;;;;;;;37.85;16.48;;;8.80;99.90;;;;;;5074021;28;20029;-40
2024/03/11 03:26:19;;;;;;;25.73;12.03;;;8.90;99.90;;;;;;5073539;28;20031;-41
2024/03/11 03:28:47;;;;;;;36.90;14.93;;;8.90;99.90;;;;;;5055944;28;20373;-40
2024/03/11 03:31:12;;;;;;;32.30;15.07;;;8.90;99.90;;;;;;5073800;28;20036;-40
2024/03/11 03:33:38;;;;;;;30.23;14.93;;;8.90;99.90;;;;;;5073758;28;20017;-40
2024/03/11 03:36:04;;;;;;;36.45;16.10;;;8.90;99.90;;;;;;5071334;28;20032;-40
2024/03/11 03:38:33;;;;;;;34.47;15.75;;;8.90;99.90;;;;;;5073028;28;20028;-40
2024/03/11 03:40:58;;;;;;;31.17;15.38;;;8.90;99.90;;;;;;5073661;28;20019;-44
2024/03/11 03:43:24;;;;;;;27.33;14.23;;;8.90;99.90;;;;;;5073467;28;20444;-43
2024/03/11 03:45:51;;;;;;;33.10;15.80;;;8.90;99.90;;;;;;5073011;28;20435;-41
2024/03/11 03:48:17;;;;;;;33.97;16.02;;;8.90;99.90;;;;;;5073147;28;20495;-40
2024/03/11 03:50:42;;;;;;;30.05;14.18;;;9.00;99.90;;;;;;5060846;28;20025;-39
2024/03/11 03:53:08;;;;;;;34.58;16.00;;;9.00;99.90;;;;;;5053357;28;20029;-51
2024/03/11 03:55:37;;;;;;;29.35;14.80;;;9.00;99.90;;;;;;5070194;28;20048;-39
2024/03/11 03:58:03;;;;;;;37.08;15.55;;;8.90;99.90;;;;;;5071448;28;20029;-39
2024/03/11 04:00:28;;;;;;;37.58;15.27;;;8.90;99.90;;;;;;5056757;28;20032;-50
2024/03/11 04:02:54;;;;;;;30.27;14.93;;;9.00;99.90;;;;;;5061706;28;20085;-56
2024/03/11 04:05:21;;;;;;;35.33;15.52;;;9.00;99.90;;;;;;5072706;28;20538;-53
2024/03/11 04:07:47;;;;;;;37.28;16.25;;;9.00;99.90;;;;;;5072919;28;20020;-39
2024/03/11 04:10:14;;;;;;;32.92;14.10;;;9.00;99.90;;;;;;5072774;28;20173;-41
2024/03/11 04:12:44;;;;;;;33.40;16.17;;;8.90;99.90;;;;;;5073081;28;20067;-38
2024/03/11 04:15:17;;;;;;;32.42;14.75;;;8.90;99.90;;;;;;5073037;28;20477;-41
2024/03/11 04:17:44;;;;;;;35.85;16.88;;;8.80;99.90;;;;;;5071516;28;20370;-39
2024/03/11 04:20:12;;;;;;;30.77;14.30;;;8.80;99.90;;;;;;5054224;28;20389;-40
2024/03/11 04:22:43;;;;;;;38.20;17.17;;;8.80;99.90;;;;;;5066515;28;20044;-53
2024/03/11 04:25:17;;;;;;;34.30;15.77;;;8.70;99.90;;;;;;5072826;28;20035;-53
2024/03/11 04:27:45;;;;;;;27.15;14.25;;;8.70;99.90;;;;;;5072452;28;20033;-52
2024/03/11 04:30:14;;;;;;;37.03;15.65;;;8.80;99.90;;;;;;5070918;28;20477;-53
2024/03/11 04:32:51;;;;;;;37.13;16.58;;;8.80;99.90;;;;;;5072594;28;20028;-53
2024/03/11 04:35:24;;;;;;;35.63;16.38;;;8.80;99.90;;;;;;5072372;28;20042;-54
2024/03/11 04:38:19;;;;;;;28.55;15.27;;;8.80;99.90;;;;;;5072880;28;20385;-53
2024/03/11 04:40:47;;;;;;;30.65;14.68;;;8.70;99.90;;;;;;5063215;28;20045;-51
2024/03/11 04:43:13;;;;;;;29.40;15.87;;;8.70;99.90;;;;;;5072660;28;20016;-39
2024/03/11 04:45:39;;;;;;;34.72;16.13;;;8.70;99.90;;;;;;5071949;28;20496;-39
2024/03/11 04:48:07;;;;;;;35.13;16.33;;;8.60;99.90;;;;;;5072698;28;20095;-44
2024/03/11 04:50:33;;;;;;;26.42;11.27;;;8.60;99.90;;;;;;5059150;28;20040;-39
2024/03/11 04:53:02;;;;;;;32.60;16.23;;;8.60;99.90;;;;;;5063267;28;20481;-39
2024/03/11 04:55:28;;;;;;;31.58;15.13;;;8.60;99.90;;;;;;5072600;28;20198;-39
2024/03/11 04:57:54;;;;;;;36.92;16.90;;;8.60;99.90;;;;;;5072606;28;20427;-41
2024/03/11 05:00:26;;;;;;;36.33;15.50;;;8.60;99.90;;;;;;5071393;28;20080;-42
2024/03/11 05:02:55;;;;;;;34.08;16.00;;;8.60;99.90;;;;;;5071165;28;20020;-42
2024/03/11 05:05:21;;;;;;;35.40;17.02;;;8.60;99.90;;;;;;5065700;28;20025;-41
2024/03/11 05:07:49;;;;;;;33.42;15.95;;;8.60;99.90;;;;;;5072043;28;20385;-41
2024/03/11 05:10:16;;;;;;;38.97;16.08;;;8.60;99.90;;;;;;5071848;28;20037;-41
2024/03/11 05:12:42;;;;;;;39.97;17.63;;;8.60;99.90;;;;;;5072090;28;20023;-54
2024/03/11 05:15:11;;;;;;;41.03;17.10;;;8.60;99.90;;;;;;5070899;28;20483;-43
2024/03/11 05:17:37;;;;;;;35.83;16.42;;;8.60;99.90;;;;;;5070668;28;20085;-40
2024/03/11 05:20:06;;;;;;;35.25;17.05;;;8.50;99.90;;;;;;5071342;28;20108;-41
2024/03/11 05:22:35;;;;;;;32.95;16.10;;;8.50;99.90;;;;;;5072378;28;20397;-62
2024/03/11 05:25:00;;;;;;;35.88;16.83;;;8.50;99.90;;;;;;5072355;28;20389;-41
2024/03/11 05:27:26;;;;;;;38.78;16.55;;;8.50;99.90;;;;;;5071979;28;20029;-40
2024/03/11 05:29:52;;;;;;;42.20;15.75;;;8.60;99.90;;;;;;5065571;28;20052;-40
2024/03/11 05:32:17;;;;;;;38.13;17.40;;;8.50;99.90;;;;;;5051942;28;20021;-39
2024/03/11 05:34:43;;;;;;;39.97;17.58;;;8.50;99.90;;;;;;5054976;28;20438;-42
2024/03/11 05:37:09;;;;;;;38.67;16.63;;;8.50;99.90;;;;;;5071832;28;20533;-41
2024/03/11 05:39:35;;;;;;;37.50;16.23;;;8.40;99.90;;;;;;5071570;28;20154;-42
2024/03/11 05:42:05;;;;;;;42.03;18.40;;;8.40;99.90;;;;;;5071864;28;20025;-38
2024/03/11 05:44:32;;;;;;;38.55;17.23;;;8.40;99.90;;;;;;5072166;28;20063;-41
2024/03/11 05:46:57;;;;;;;39.17;17.08;;;8.30;99.90;;;;;;5071799;28;20043;-39
2024/03/11 05:49:25;;;;;;;39.80;17.33;;;8.30;99.90;;;;;;5070060;28;20033;-39
2024/03/11 05:51:52;;;;;;;;;;;8.20;99.90;;;;;;5074488;28;20028;-38
2024/03/11 05:54:18;;;;;;;39.40;16.58;;;8.20;99.90;;;;;;5075457;28;19962;-38
2024/03/11 05:56:53;;;;;;;41.08;19.08;;;8.30;99.90;;;;;;5075593;28;20469;-38
2024/03/11 05:59:21;;;;;;;35.55;17.58;;;8.20;99.90;;;;;;5073360;28;20016;-38
2024/03/11 06:01:48;;;;;;;40.75;17.65;;;8.20;99.90;;;;;;5067957;28;20469;-50
2024/03/11 06:04:14;;;;;;;33.95;17.55;;;8.20;99.90;;;;;;5055893;28;20469;-53
2024/03/11 06:06:44;;;;;;;37.47;17.48;;;8.20;99.90;;;;;;5054156;28;20465;-52
2024/03/11 06:09:12;;;;;;;39.47;18.00;;;8.20;99.90;;;;;;5056345;28;20556;-47
2024/03/11 06:11:40;;;;;;;41.35;15.90;;;8.20;99.90;;;;;;5075175;28;20484;-51
2024/03/11 06:14:07;;;;;;;38.65;18.27;;;8.20;99.90;;;;;;5075192;28;20020;-46
2024/03/11 06:16:33;;;;;;;35.78;16.90;;;8.20;99.90;;;;;;5075119;28;20112;-53
2024/03/11 06:18:59;;;;;;;35.72;17.08;;;8.20;99.90;;;;;;5073467;28;20424;-53
2024/03/11 06:21:25;;;;;;;39.78;17.77;;;8.10;99.90;;;;;;5075215;28;20392;-39
2024/03/11 06:23:51;;;;;;;42.50;17.83;;;8.10;99.90;;;;;;5075284;28;20017;-42
2024/03/11 06:26:17;;;;;;;47.00;17.73;;;8.00;99.90;;;;;;5074790;28;20046;-40
2024/03/11 06:28:43;;;;;;;37.58;17.02;;;8.00;99.90;;;;;;5074745;28;20393;-42
2024/03/11 06:31:09;;;;;;;39.40;18.13;;;8.10;99.90;;;;;;5074843;28;20033;-40
2024/03/11 06:33:35;;;;;;;35.42;17.25;;;8.10;99.90;;;;;;5074965;28;20020;-41
2024/03/11 06:36:01;;;;;;;37.30;17.60;;;8.10;99.90;;;;;;5057973;28;20092;-41
2024/03/11 06:38:29;;;;;;;38.08;17.60;;;8.10;99.90;;;;;;5054807;28;20522;-41
2024/03/11 06:40:56;;;;;;;;;;;8.10;99.90;;;;;;5073735;28;20027;-41
2024/03/11 06:43:23;;;;;;;41.95;19.40;;;8.00;99.90;;;;;;5074823;28;20361;-46
2024/03/11 06:45:48;;;;;;;36.28;17.38;;;8.10;99.90;;;;;;5074550;28;20024;-44
2024/03/11 06:48:14;;;;;;;37.63;17.58;;;8.10;99.90;;;;;;5074620;28;20082;-41
2024/03/11 06:50:40;;;;;;;43.25;19.33;;;8.00;99.90;;;;;;5072640;28;20028;-43
2024/03/11 06:53:08;;;;;;;50.92;21.25;;;8.00;99.90;;;;;;5074534;28;20580;-43
2024/03/11 06:55:34;;;;;;;46.10;18.97;;;8.00;99.90;;;;;;5074667;28;20095;-44
2024/03/11 06:58:01;;;;;;;41.45;18.23;;;8.00;99.90;;;;;;5074431;28;20031;-42
2024/03/11 07:00:27;;;;;;;38.10;18.13;;;8.00;99.90;;;;;;5074045;28;20024;-41
2024/03/11 07:02:53;;;;;;;39.97;17.75;;;7.90;99.90;;;;;;5073490;28;20077;-41
2024/03/11 07:05:26;;;;;;;44.40;20.40;;;8.00;99.90;;;;;;5073226;28;20024;-46
2024/03/11 07:07:52;;;;;;;39.17;17.65;;;8.00;99.90;;;;;;5073983;28;20041;-42
2024/03/11 07:10:18;;;;;;;44.58;19.40;;;8.00;99.90;;;;;;5073524;28;20028;-50
2024/03/11 07:12:45;;;;;;;45.28;19.65;;;8.00;99.90;;;;;;5074009;28;20025;-43
2024/03/11 07:15:11;;;;;;;40.47;18.23;;;7.90;99.90;;;;;;5074185;28;20509;-41
2024/03/11 07:17:37;;;;;;;46.92;19.17;;;7.90;99.90;;;;;;5054425;28;20020;-41
2024/03/11 07:20:13;;;;;;;47.28;19.23;;;8.00;99.90;;;;;;5073198;28;20029;-43
2024/03/11 07:22:39;;;;;;;45.67;19.08;;;7.90;99.90;;;;;;5074163;28;20505;-41
2024/03/11 07:25:10;;;;;;;40.63;17.80;;;8.00;99.90;;;;;;5073649;28;20056;-50
2024/03/11 07:27:39;;;;;;;43.72;19.70;;;8.00;99.90;;;;;;5074119;28;20489;-64
2024/03/11 07:30:09;;;;;;;45.55;19.40;;;8.00;99.90;;;;;;5069332;28;20119;-47
2024/03/11 07:32:35;;;;;;;46.50;19.65;;;8.00;99.90;;;;;;5073284;28;20477;-53
2024/03/11 07:35:02;;;;;;;45.30;19.77;;;8.00;99.90;;;;;;5073277;28;20027;-49
2024/03/11 07:37:28;;;;;;;44.45;18.90;;;8.00;99.90;;;;;;5073815;28;20107;-54
2024/03/11 07:39:54;;;;;;;41.85;18.90;;;8.00;99.90;;;;;;5073233;28;20501;-51
2024/03/11 07:42:22;;;;;;;40.90;17.40;;;8.00;99.90;;;;;;5071791;28;20039;-51
2024/03/11 07:44:51;;;;;;;44.72;19.60;;;8.00;99.90;;;;;;5072482;28;20393;-52
2024/03/11 07:47:17;;;;;;;46.38;18.77;;;8.00;99.90;;;;;;5073501;28;20108;-53
2024/03/11 07:49:43;;;;;;;43.75;19.70;;;8.00;99.90;;;;;;5073009;28;20107;-54
2024/03/11 07:52:12;;;;;;;42.97;18.50;;;8.00;99.90;;;;;;5063390;28;20131;-59
2024/03/11 07:54:38;;;;;;;50.85;20.75;;;8.00;99.90;;;;;;5073333;28;20016;-50
2024/03/11 07:57:03;;;;;;;46.35;19.48;;;8.00;99.90;;;;;;5073214;28;20028;-53
2024/03/11 07:59:29;;;;;;;45.53;18.55;;;8.10;99.90;;;;;;5071923;28;20157;-48
2024/03/11 08:01:55;;;;;;;45.15;20.13;;;8.10;99.90;;;;;;5073728;28;20031;-49
2024/03/11 08:04:21;;;;;;;44.60;19.20;;;8.10;99.90;;;;;;5073091;28;20104;-51
2024/03/11 08:06:46;;;;;;;43.58;18.85;;;8.10;99.90;;;;;;5072929;28;20024;-51
2024/03/11 08:09:14;;;;;;;40.97;17.70;;;8.10;99.90;;;;;;5072680;28;20040;-48
2024/03/11 08:11:40;;;;;;;43.05;19.40;;;8.10;99.90;;;;;;5073198;28;20021;-50
2024/03/11 08:14:05;;;;;;;43.33;18.95;;;8.10;99.90;;;;;;5070441;28;20543;-53
2024/03/11 08:16:31;;;;;;;42.72;19.13;;;8.20;99.90;;;;;;5072259;28;20024;-51
2024/03/11 08:18:57;;;;;;;43.38;19.23;;;8.30;99.90;;;;;;5072331;28;20046;-48
2024/03/11 08:21:23;;;;;;;41.15;19.75;;;8.30;99.90;;;;;;5070782;28;20086;-51
2024/03/11 08:23:49;;;;;;;44.55;20.15;;;8.20;99.90;;;;;;5072523;28;20029;-47
2024/03/11 08:26:17;;;;;;;43.38;19.20;;;8.20;99.90;;;;;;5071346;28;20016;-71
2024/03/11 08:28:43;;;;;;;43.63;18.92;;;8.20;99.90;;;;;;5071929;28;20082;-50
2024/03/11 08:31:09;;;;;;;47.65;21.73;;;8.20;99.90;;;;;;5070594;28;20481;-49
2024/03/11 08:33:38;;;;;;;44.53;19.90;;;8.20;99.90;;;;;;5072488;28;20055;-39
2024/03/11 08:36:05;;;;;;;47.20;19.48;;;8.20;99.90;;;;;;5072596;28;20035;-39
2024/03/11 08:38:38;;;;;;;42.42;19.83;;;8.20;99.90;;;;;;5071169;28;20484;-42
2024/03/11 08:41:07;;;;;;;51.58;21.15;;;8.10;99.90;;;;;;5072752;28;20017;-39
2024/03/11 08:43:33;;;;;;;51.13;20.45;;;8.20;99.90;;;;;;5072254;28;20020;-39
2024/03/11 08:45:59;;;;;;;48.78;22.13;;;8.10;99.90;;;;;;5072054;28;20029;-49
2024/03/11 08:48:26;;;;;;;48.05;21.40;;;8.10;99.90;;;;;;5071046;28;20021;-53
2024/03/11 08:50:52;;;;;;;52.85;20.67;;;8.10;99.90;;;;;;5072361;28;20028;-50
2024/03/11 08:53:19;;;;;;;43.85;20.75;;;8.10;99.90;;;;;;5071144;28;20535;-48
2024/03/11 08:55:48;;;;;;;51.92;19.58;;;8.10;99.90;;;;;;5072359;28;20029;-49
2024/03/11 08:58:15;;;;;;;39.80;18.90;;;8.00;99.90;;;;;;5072071;28;20348;-51
2024/03/11 09:00:42;;;;;;;49.27;20.53;;;8.00;99.90;;;;;;5070864;28;20143;-53
2024/03/11 09:03:07;;;;;;;40.83;19.25;;;8.00;99.90;;;;;;5054202;28;20024;-54
2024/03/11 09:05:33;;;;;;;48.05;20.25;;;8.10;99.90;;;;;;5072196;28;20036;-51
2024/03/11 09:08:03;;;;;;;48.42;21.58;;;8.00;99.90;;;;;;5072084;28;20059;-53
2024/03/11 09:10:29;;;;;;;45.33;19.63;;;8.00;99.90;;;;;;5072157;28;20024;-51
2024/03/11 09:12:55;;;;;;;51.85;21.63;;;8.00;99.90;;;;;;5072037;28;20363;-41
2024/03/11 09:15:23;;;;;;;49.90;20.00;;;7.90;99.90;;;;;;5072147;28;20028;-40
2024/03/11 09:17:50;;;;;;;45.83;19.98;;;7.90;99.90;;;;;;5072227;28;20050;-41
2024/03/11 09:20:19;;;;;;;54.40;22.65;;;7.90;99.90;;;;;;5070988;28;20504;-39
2024/03/11 09:22:50;;;;;;;48.65;22.58;;;7.90;99.90;;;;;;5072103;28;20021;-41
2024/03/11 09:25:18;;;;;;;46.95;20.58;;;7.90;99.90;;;;;;5072028;28;20097;-40
2024/03/11 09:27:47;;;;;;;58.75;21.73;;;7.90;99.90;;;;;;5076279;28;20477;-40
2024/03/11 09:30:14;;;;;;;50.42;20.92;;;7.90;99.90;;;;;;5076006;28;20551;-40
2024/03/11 09:32:43;;;;;;;50.90;20.88;;;7.90;99.90;;;;;;5076397;28;20025;-42
2024/03/11 09:35:09;;;;;;;52.05;20.02;;;7.90;99.90;;;;;;5075963;28;20020;-40
2024/03/11 09:37:35;;;;;;;51.38;21.33;;;7.90;99.90;;;;;;5074777;28;20017;-40
2024/03/11 09:40:09;;;;;;;52.97;21.45;;;7.90;99.90;;;;;;5075973;28;20031;-40
2024/03/11 09:42:37;;;;;;;61.83;21.45;;;7.90;99.90;;;;;;5075924;28;20031;-56
2024/03/11 09:45:07;;;;;;;60.70;22.33;;;8.00;99.90;;;;;;5075909;28;20472;-67
2024/03/11 09:47:36;;;;;;;53.35;20.63;;;7.90;99.90;;;;;;5074273;28;20029;-40
2024/03/11 09:50:03;;;;;;;50.33;20.77;;;7.90;99.90;;;;;;5075938;28;20542;-39
2024/03/11 09:52:32;;;;;;;50.80;19.88;;;7.90;99.90;;;;;;5075679;28;20461;-39
2024/03/11 09:54:58;;;;;;;50.47;21.10;;;8.00;99.90;;;;;;5074331;28;20028;-39
2024/03/11 09:57:25;;;;;;;52.50;21.33;;;8.00;99.90;;;;;;5075766;28;20040;-40
2024/03/11 09:59:54;;;;;;;47.65;22.38;;;8.00;99.90;;;;;;5075583;28;20020;-41
2024/03/11 10:02:26;;;;;;;52.28;21.83;;;8.00;99.90;;;;;;5075751;28;20488;-40
2024/03/11 10:04:55;;;;;;;54.83;21.95;;;8.00;99.90;;;;;;5074095;28;20146;-39
2024/03/11 10:07:23;;;;;;;52.33;21.67;;;8.00;99.90;;;;;;5075472;28;20024;-42
2024/03/11 10:09:48;;;;;;;33.42;15.68;;;7.90;99.90;;;;;;5073703;28;20052;-40
2024/03/11 10:12:15;;;;;;;52.33;19.98;;;7.90;99.90;;;;;;5075350;28;20032;-44
2024/03/11 10:14:43;;;;;;;59.42;21.25;;;7.90;99.90;;;;;;5075286;28;20370;-41
2024/03/11 10:17:23;;;;;;;50.17;22.67;;;7.90;99.90;;;;;;5075280;28;20025;-41
2024/03/11 10:19:58;;;;;;;54.60;20.65;;;7.90;99.90;;;;;;5075429;28;20473;-41
2024/03/11 10:22:28;;;;;;;49.95;20.98;;;7.90;99.90;;;;;;5074912;28;20485;-42
2024/03/11 10:24:55;;;;;;;62.45;22.77;;;8.00;99.90;;;;;;5073488;28;20392;-41
2024/03/11 10:27:28;;;;;;;57.50;21.92;;;8.00;99.90;;;;;;5075310;28;20554;-46
2024/03/11 10:29:55;;;;;;;55.22;22.48;;;8.00;99.90;;;;;;5057499;28;20032;-40
2024/03/11 10:32:38;;;;;;;52.80;21.05;;;8.00;99.90;;;;;;5073678;28;20055;-40
2024/03/11 10:35:09;;;;;;;55.08;20.48;;;8.00;99.90;;;;;;5074791;28;20051;-51
2024/03/11 10:37:37;;;;;;;45.80;20.42;;;8.10;99.90;;;;;;5074176;28;20017;-52
2024/03/11 10:40:10;;;;;;;;;;;8.10;99.90;;;;;;5075010;28;20016;-52
2024/03/11 10:42:37;;;;;;;50.95;20.35;;;8.10;99.90;;;;;;5072817;28;19912;-53
2024/03/11 10:45:05;;;;;;;49.10;19.63;;;8.10;99.90;;;;;;5075012;28;20485;-49
2024/03/11 10:47:31;;;;;;;54.83;21.48;;;8.10;99.90;;;;;;5073276;28;20115;-48
2024/03/11 10:50:01;;;;;;;53.55;21.10;;;8.10;99.90;;;;;;5073311;28;20021;-51
2024/03/11 10:52:33;;;;;;;56.88;23.17;;;8.20;99.90;;;;;;5074961;28;20499;-51
2024/03/11 10:55:02;;;;;;;49.28;21.38;;;8.20;99.90;;;;;;5074449;28;20480;-52
2024/03/11 10:57:31;;;;;;;53.60;21.70;;;8.20;99.90;;;;;;5074510;28;20032;-52
2024/03/11 10:59:58;;;;;;;53.67;20.75;;;8.20;99.90;;;;;;5074308;28;20506;-48
2024/03/11 11:02:25;;;;;;;49.42;18.77;;;8.20;99.90;;;;;;5074370;28;20031;-52
2024/03/11 11:04:55;;;;;;;50.72;20.30;;;8.20;99.90;;;;;;5074390;28;20035;-51
2024/03/11 11:07:30;;;;;;;52.22;20.60;;;8.10;99.90;;;;;;5074293;28;20074;-51
2024/03/11 11:10:01;;;;;;;51.15;19.63;;;8.00;99.90;;;;;;5074019;28;20090;-51
2024/03/11 11:12:29;;;;;;;53.60;20.88;;;8.00;99.90;;;;;;5074373;28;20534;-56
2024/03/11 11:15:05;;;;;;;42.15;17.85;;;8.10;99.90;;;;;;5074350;28;20020;-52
2024/03/11 11:17:37;;;;;;;46.10;18.50;;;8.10;99.90;;;;;;5074040;28;20021;-49
2024/03/11 11:20:29;;;;;;;51.20;19.38;;;8.10;99.90;;;;;;5074363;28;20427;-51
2024/03/11 11:22:54;;;;;;;40.35;17.95;;;8.20;99.90;;;;;;5062578;28;20038;-51
2024/03/11 11:25:40;;;;;;;47.58;18.52;;;8.20;99.90;;;;;;5056794;28;20388;-52
2024/03/11 11:28:13;;;;;;;41.35;18.98;;;8.20;99.90;;;;;;5072859;28;20059;-52
2024/03/11 11:30:41;;;;;;;44.80;18.13;;;8.10;99.90;;;;;;5073612;28;20410;-52
2024/03/11 11:33:11;;;;;;;45.00;19.00;;;8.10;99.90;;;;;;5072325;28;20051;-51
2024/03/11 11:35:41;;;;;;;44.63;18.05;;;8.20;99.90;;;;;;5073695;28;20051;-50
2024/03/11 11:38:25;;;;;;;44.95;18.40;;;8.20;99.90;;;;;;5073709;28;20112;-52
2024/03/11 11:40:53;;;;;;;43.45;17.40;;;8.10;99.90;;;;;;5073656;28;20439;-52
2024/03/11 11:43:24;;;;;;;39.63;17.13;;;8.10;99.90;;;;;;5073601;28;20020;-53
2024/03/11 11:45:55;;;;;;;40.63;17.35;;;8.10;99.90;;;;;;5073634;28;20064;-49
2024/03/11 11:48:26;;;;;;;41.35;18.30;;;8.00;99.90;;;;;;5070165;28;20029;-52
2024/03/11 11:50:58;;;;;;;38.00;17.10;;;8.00;99.90;;;;;;5072994;28;20416;-50
2024/03/11 11:53:27;;;;;;;46.65;18.73;;;8.00;99.90;;;;;;5073447;28;20434;-51
2024/03/11 11:55:53;;;;;;;37.35;18.23;;;7.90;99.90;;;;;;5073285;28;20100;-54
2024/03/11 11:58:21;;;;;;;47.00;17.77;;;7.90;99.90;;;;;;5073279;28;20039;-50
2024/03/11 12:01:00;;;;;;;47.17;19.40;;;7.90;99.90;;;;;;5071957;28;20370;-52
2024/03/11 12:03:32;;;;;;;45.25;18.10;;;7.90;99.90;;;;;;5072977;28;20027;-49
2024/03/11 12:06:03;;;;;;;43.33;17.90;;;7.80;99.90;;;;;;5071840;28;20136;-52
2024/03/11 12:08:32;;;;;;;43.83;19.35;;;7.80;99.90;;;;;;5071408;28;20044;-51
2024/03/11 12:11:10;;;;;;;42.45;17.77;;;7.80;99.90;;;;;;5072907;28;20393;-47
2024/03/11 12:13:36;;;;;;;;;;;7.80;99.90;;;;;;5073483;28;20020;-51
2024/03/11 12:16:10;;;;;;;38.45;16.35;;;7.80;99.90;;;;;;5073266;28;19911;-51
2024/03/11 12:18:41;;;;;;;50.55;17.42;;;7.80;99.90;;;;;;5073108;28;20402;-50
2024/03/11 12:21:13;;;;;;;41.45;18.20;;;7.80;99.90;;;;;;5072582;28;20028;-51
2024/03/11 12:23:41;;;;;;;44.50;18.77;;;7.80;99.90;;;;;;5072687;28;20069;-51
2024/03/11 12:26:12;;;;;;;;;;;7.90;99.90;;;;;;5071855;28;20485;-51
2024/03/11 12:28:43;;;;;;;41.53;17.25;;;7.80;99.90;;;;;;5072625;28;19912;-52
2024/03/11 12:31:15;;;;;;;40.92;17.73;;;7.90;99.90;;;;;;5071489;28;20025;-53
2024/03/11 12:33:41;;;;;;;42.00;18.83;;;7.80;99.90;;;;;;5073020;28;20441;-49
2024/03/11 12:36:09;;;;;;;49.58;17.77;;;7.80;99.90;;;;;;5072661;28;20025;-52
2024/03/11 12:38:35;;;;;;;38.88;16.30;;;7.90;99.90;;;;;;5071199;28;20496;-58
2024/03/11 12:41:01;;;;;;;43.08;17.02;;;7.90;99.90;;;;;;5072706;28;20477;-48
2024/03/11 12:43:30;;;;;;;34.75;15.95;;;7.90;99.90;;;;;;5072688;28;20031;-50